Time;durP1;ratioP1;P1;durP2;ratioP2;P2;SDS_P1;SDS_P2;PMS_P1;PMS_P2;Temp;Humidity;BMP_temperature;BMP_pressure;BME280_temperature;BME280_humidity;BME280_pressure;Samples;Min_cycle;Max_cycle;Signal;HPM_P1;HPM_P2
2021/06/17 00:01:46;;;;;;;;;;;19.70;99.90;;;;;;5077642;28;20003;-89
2021/06/17 00:04:11;;;;;;;;;;;19.60;99.90;;;;;;5073457;28;19943;-89
2021/06/17 00:06:37;;;;;;;;;;;19.60;99.90;;;;;;5077637;28;20010;-88
2021/06/17 00:09:03;;;;;;;;;;;19.60;99.90;;;;;;5071861;28;19908;-86
2021/06/17 00:11:29;;;;;;;;;;;19.60;99.90;;;;;;5074576;28;19912;-88
2021/06/17 00:13:55;;;;;;;;;;;19.50;99.90;;;;;;5072237;28;19915;-88
2021/06/17 00:16:22;;;;;;;;;;;19.50;99.90;;;;;;5074083;28;19905;-88
2021/06/17 00:18:48;;;;;;;;;;;19.60;99.90;;;;;;5071678;28;19915;-87
2021/06/17 00:21:13;;;;;;;;;;;19.60;99.90;;;;;;5076396;28;19913;-86
2021/06/17 00:23:39;;;;;;;;;;;19.60;99.90;;;;;;5073544;28;19991;-87
2021/06/17 00:26:04;;;;;;;;;;;19.60;99.90;;;;;;5076550;28;19923;-87
2021/06/17 00:28:30;;;;;;;;;;;19.70;99.90;;;;;;5075553;28;19908;-90
2021/06/17 00:30:56;;;;;;;;;;;19.70;99.90;;;;;;5072162;28;19916;-82
2021/06/17 00:33:21;;;;;;;;;;;19.80;99.90;;;;;;5073362;28;19917;-89
2021/06/17 00:35:48;;;;;;;;;;;19.80;99.90;;;;;;5073466;28;19943;-90
2021/06/17 00:38:14;;;;;;;;;;;19.70;99.90;;;;;;5072190;28;19923;-87
2021/06/17 00:40:39;;;;;;;;;;;19.80;99.90;;;;;;5067063;28;19908;-90
2021/06/17 00:43:05;;;;;;;;;;;19.70;99.90;;;;;;5071052;28;19952;-89
2021/06/17 00:45:31;;;;;;;;;;;19.70;99.90;;;;;;5077266;28;19908;-88
2021/06/17 00:47:57;;;;;;;;;;;19.70;99.90;;;;;;5076680;28;19911;-89
2021/06/17 00:50:24;;;;;;;;;;;19.60;99.90;;;;;;5077576;28;19962;-88
2021/06/17 00:52:49;;;;;;;;;;;19.50;99.90;;;;;;5071937;28;19917;-88
2021/06/17 00:55:15;;;;;;;;;;;19.50;99.90;;;;;;5072098;28;20251;-88
2021/06/17 00:57:41;;;;;;;;;;;19.50;99.90;;;;;;5083305;28;19920;-88
2021/06/17 01:00:07;;;;;;;;;;;19.50;99.90;;;;;;5086991;28;19908;-87
2021/06/17 01:02:33;;;;;;;;;;;19.60;99.90;;;;;;5072177;28;19908;-90
2021/06/17 01:04:58;;;;;;;;;;;19.60;99.90;;;;;;5077111;28;19908;-88
2021/06/17 01:07:34;;;;;;;;;;;19.60;99.90;;;;;;5075761;28;19920;-84
2021/06/17 01:10:14;;;;;;;;;;;19.60;99.90;;;;;;5076307;28;19904;-87
2021/06/17 01:12:40;;;;;;;;;;;19.60;99.90;;;;;;5075460;28;20265;-87
2021/06/17 01:15:07;;;;;;;;;;;19.60;99.90;;;;;;5073542;28;19913;-87
2021/06/17 01:17:36;;;;;;;;;;;19.60;99.90;;;;;;5074517;28;20047;-86
2021/06/17 01:20:01;;;;;;;;;;;19.60;99.90;;;;;;5076912;28;20206;-86
2021/06/17 01:22:29;;;;;;;;;;;19.50;99.90;;;;;;5074861;28;19908;-87
2021/06/17 01:25:13;;;;;;;;;;;19.50;99.90;;;;;;5075740;28;20211;-87
2021/06/17 01:27:41;;;;;;;;;;;19.40;99.90;;;;;;5074968;28;19905;-87
2021/06/17 01:30:11;;;;;;;;;;;19.40;99.90;;;;;;5075757;28;19908;-86
2021/06/17 01:32:38;;;;;;;;;;;19.50;99.90;;;;;;5076385;28;19923;-89
2021/06/17 01:35:06;;;;;;;;;;;19.50;99.90;;;;;;5068285;28;191173;-85
2021/06/17 01:37:32;;;;;;;;;;;19.50;99.90;;;;;;5070813;28;19955;-89
2021/06/17 01:39:58;;;;;;;;;;;19.50;99.90;;;;;;5078242;28;19908;-90
2021/06/17 01:42:24;;;;;;;;;;;19.50;99.90;;;;;;5082135;28;19965;-83
2021/06/17 01:44:53;;;;;;;;;;;19.50;99.90;;;;;;5071620;28;19908;-87
2021/06/17 01:47:19;;;;;;;;;;;19.50;99.90;;;;;;5075903;28;19904;-86
2021/06/17 01:49:46;;;;;;;;;;;19.60;99.90;;;;;;5076045;28;19931;-87
2021/06/17 01:52:11;;;;;;;;;;;19.60;99.90;;;;;;5076908;28;20208;-88
2021/06/17 01:54:39;;;;;;;;;;;19.60;99.90;;;;;;5080112;28;19916;-88
2021/06/17 01:57:04;;;;;;;;;;;19.60;99.90;;;;;;5076825;28;19904;-86
2021/06/17 01:59:32;;;;;;;;;;;19.60;99.90;;;;;;5075725;28;20331;-89
2021/06/17 02:01:58;;;;;;;;;;;19.60;99.90;;;;;;5076816;28;20376;-88
2021/06/17 02:04:25;;;;;;;;;;;19.60;99.90;;;;;;5075911;28;19974;-83
2021/06/17 02:06:51;;;;;;;;;;;19.60;99.90;;;;;;5075203;28;19908;-89
2021/06/17 02:09:17;;;;;;;;;;;19.70;99.90;;;;;;5077314;28;20294;-88
2021/06/17 02:11:43;;;;;;;;;;;19.80;99.90;;;;;;5075936;28;20364;-88
2021/06/17 02:14:09;;;;;;;;;;;19.80;99.90;;;;;;5075802;28;19905;-89
2021/06/17 02:16:35;;;;;;;;;;;19.80;99.90;;;;;;5076177;28;19908;-87
2021/06/17 02:19:01;;;;;;;;;;;19.80;99.90;;;;;;5073971;28;19916;-86
2021/06/17 02:21:29;;;;;;;;;;;19.80;99.90;;;;;;5075607;28;19952;-89
2021/06/17 02:23:56;;;;;;;;;;;19.70;99.90;;;;;;5074017;28;19916;-84
2021/06/17 02:26:24;;;;;;;;;;;19.70;99.90;;;;;;5075756;28;19962;-87
2021/06/17 02:28:50;;;;;;;;;;;19.60;99.90;;;;;;5074427;28;19943;-86
2021/06/17 02:31:21;;;;;;;;;;;19.60;99.90;;;;;;5074394;28;20309;-87
2021/06/17 02:33:47;;;;;;;;;;;19.50;99.90;;;;;;5072157;28;19912;-88
2021/06/17 02:36:13;;;;;;;;;;;19.50;99.90;;;;;;5073985;28;19916;-86
2021/06/17 02:38:40;;;;;;;;;;;19.50;99.90;;;;;;5074323;28;20254;-87
2021/06/17 02:41:10;;;;;;;;;;;19.60;99.90;;;;;;5075557;28;19962;-89
2021/06/17 02:43:38;;;;;;;;;;;19.60;99.90;;;;;;5074930;28;19955;-87
2021/06/17 02:46:05;;;;;;;;;;;19.60;99.90;;;;;;5075279;28;19943;-88
2021/06/17 02:48:31;;;;;;;;;;;19.60;99.90;;;;;;5075541;28;19908;-89
2021/06/17 02:50:56;;;;;;;;;;;19.60;99.90;;;;;;5074336;28;19908;-89
2021/06/17 02:53:22;;;;;;;;;;;19.60;99.90;;;;;;5071726;28;19943;-87
2021/06/17 02:55:48;;;;;;;;;;;19.60;99.90;;;;;;5075887;28;19908;-88
2021/06/17 02:58:17;;;;;;;;;;;19.60;99.90;;;;;;5076969;28;20308;-87
2021/06/17 03:00:52;;;;;;;;;;;19.60;99.90;;;;;;5071183;28;19922;-87
2021/06/17 03:03:31;;;;;;;;;;;19.60;99.90;;;;;;5073608;28;20291;-86
2021/06/17 03:06:02;;;;;;;;;;;19.50;99.90;;;;;;5080044;28;19915;-86
2021/06/17 03:08:32;;;;;;;;;;;19.40;99.90;;;;;;5075178;28;19965;-87
2021/06/17 03:11:01;;;;;;;;;;;19.30;99.90;;;;;;5076436;28;19909;-88
2021/06/17 03:13:29;;;;;;;;;;;19.30;99.90;;;;;;5075075;28;19912;-88
2021/06/17 03:15:55;;;;;;;;;;;19.30;99.90;;;;;;5074639;28;19954;-86
2021/06/17 03:18:21;;;;;;;;;;;19.20;99.90;;;;;;5075675;28;19909;-86
2021/06/17 03:20:48;;;;;;;;;;;19.30;99.90;;;;;;5074519;28;19908;-87
2021/06/17 03:23:15;;;;;;;;;;;19.30;99.90;;;;;;5074436;28;20057;-79
2021/06/17 03:25:42;;;;;;;;;;;19.20;99.90;;;;;;5072560;28;20196;-88
2021/06/17 03:28:09;;;;;;;;;;;19.30;99.90;;;;;;5074342;28;19999;-88
2021/06/17 03:30:35;;;;;;;;;;;19.30;99.90;;;;;;5073611;28;20180;-88
2021/06/17 03:33:02;;;;;;;;;;;19.30;99.90;;;;;;5075828;28;19923;-88
2021/06/17 03:35:28;;;;;;;;;;;19.30;99.90;;;;;;5069088;28;19959;-88
2021/06/17 03:37:55;;;;;;;;;;;19.40;99.90;;;;;;5074210;28;19908;-87
2021/06/17 03:40:21;;;;;;;;;;;19.40;99.90;;;;;;5074153;28;19908;-86
2021/06/17 03:42:47;;;;;;;;;;;19.60;99.90;;;;;;5070340;28;19908;-88
2021/06/17 03:45:13;;;;;;;;;;;19.50;99.90;;;;;;5073658;28;19916;-87
2021/06/17 03:47:41;;;;;;;;;;;19.50;99.90;;;;;;5075570;28;19962;-88
2021/06/17 03:50:07;;;;;;;;;;;19.60;99.90;;;;;;5074537;28;19908;-86
2021/06/17 03:52:33;;;;;;;;;;;19.50;99.90;;;;;;5072227;28;20200;-88
2021/06/17 03:54:59;;;;;;;;;;;19.60;99.90;;;;;;5074379;28;19908;-88
2021/06/17 03:57:25;;;;;;;;;;;19.60;99.90;;;;;;5074083;28;19916;-83
2021/06/17 03:59:52;;;;;;;;;;;19.60;99.90;;;;;;5075958;28;19914;-87
2021/06/17 04:02:17;;;;;;;;;;;19.60;99.90;;;;;;5071145;28;19919;-86
2021/06/17 04:04:43;;;;;;;;;;;19.60;99.90;;;;;;5064124;28;19934;-87
2021/06/17 04:07:12;;;;;;;;;;;19.60;99.90;;;;;;5072053;28;19904;-88
2021/06/17 04:09:39;;;;;;;;;;;19.60;99.90;;;;;;5063847;28;19958;-88
2021/06/17 04:12:09;;;;;;;;;;;19.60;99.90;;;;;;5075333;28;19916;-87
2021/06/17 04:14:39;;;;;;;;;;;19.50;99.90;;;;;;5075523;28;20009;-87
2021/06/17 04:17:06;;;;;;;;;;;19.50;99.90;;;;;;5075494;28;19916;-87
2021/06/17 04:19:33;;;;;;;;;;;19.60;99.90;;;;;;5073318;28;19904;-87
2021/06/17 04:22:01;;;;;;;;;;;19.70;99.90;;;;;;5074809;28;19908;-87
2021/06/17 04:24:28;;;;;;;;;;;19.70;99.90;;;;;;5063918;28;20309;-87
2021/06/17 04:26:54;;;;;;;;;;;19.80;99.90;;;;;;5073366;28;19912;-82
2021/06/17 04:29:21;;;;;;;;;;;19.90;99.90;;;;;;5075035;28;19905;-87
2021/06/17 04:31:50;;;;;;;;;;;19.90;99.90;;;;;;5070540;28;19919;-86
2021/06/17 04:34:17;;;;;;;;;;;20.00;99.90;;;;;;5066930;28;19913;-87
2021/06/17 04:36:43;;;;;;;;;;;20.10;99.90;;;;;;5076559;28;20200;-87
2021/06/17 04:39:09;;;;;;;;;;;20.20;99.90;;;;;;5076879;28;20005;-87
2021/06/17 04:41:36;;;;;;;;;;;20.40;99.90;;;;;;5078840;28;20327;-81
2021/06/17 04:44:02;;;;;;;;;;;20.50;99.90;;;;;;5079047;28;19908;-88
2021/06/17 04:46:29;;;;;;;;;;;20.60;99.90;;;;;;5077570;28;19995;-88
2021/06/17 04:48:55;;;;;;;;;;;20.60;99.90;;;;;;5077546;28;19912;-88
2021/06/17 04:51:21;;;;;;;;;;;20.70;99.90;;;;;;5076151;28;20299;-87
2021/06/17 04:53:50;;;;;;;;;;;20.90;99.90;;;;;;5074180;28;19904;-86
2021/06/17 04:56:16;;;;;;;;;;;20.90;99.90;;;;;;5077088;28;20211;-85
2021/06/17 04:58:42;;;;;;;;;;;21.10;99.90;;;;;;5077096;28;19904;-86
2021/06/17 05:01:08;;;;;;;;;;;21.20;99.90;;;;;;5076959;28;19905;-87
2021/06/17 05:03:35;;;;;;;;;;;21.30;99.90;;;;;;5079808;28;19915;-88
2021/06/17 05:06:02;;;;;;;;;;;21.30;99.90;;;;;;5077396;28;19908;-85
2021/06/17 05:11:13;;;;;;;;;;;21.50;99.90;;;;;;5076964;28;20050;-84
2021/06/17 05:13:42;;;;;;;;;;;21.70;99.90;;;;;;5074353;28;20354;-86
2021/06/17 05:16:08;;;;;;;;;;;21.80;99.90;;;;;;5069396;28;19908;-83
2021/06/17 05:18:33;;;;;;;;;;;21.90;99.90;;;;;;5073647;28;19919;-84
2021/06/17 05:20:59;;;;;;;;;;;22.00;99.90;;;;;;5069087;28;19935;-84
2021/06/17 05:23:25;;;;;;;;;;;22.10;99.90;;;;;;5063943;28;19920;-83
2021/06/17 05:25:52;;;;;;;;;;;22.20;99.90;;;;;;5071505;28;19997;-82
2021/06/17 05:28:20;;;;;;;;;;;22.20;99.90;;;;;;5068650;28;19916;-83
2021/06/17 05:30:46;;;;;;;;;;;22.30;99.90;;;;;;5067177;28;19916;-88
2021/06/17 05:33:12;;;;;;;;;;;22.40;99.90;;;;;;5062909;28;19919;-82
2021/06/17 05:35:38;;;;;;;;;;;22.50;99.90;;;;;;5064196;28;19917;-83
2021/06/17 05:38:04;;;;;;;;;;;22.60;99.90;;;;;;5067268;28;19917;-85
2021/06/17 05:40:30;;;;;;;;;;;22.70;99.90;;;;;;5071321;28;19950;-84
2021/06/17 05:42:55;;;;;;;;;;;22.70;99.90;;;;;;5068594;28;20232;-83
2021/06/17 05:45:21;;;;;;;;;;;22.80;99.90;;;;;;5073046;28;19912;-84
2021/06/17 05:47:47;;;;;;;;;;;22.90;99.90;;;;;;5070850;28;19943;-84
2021/06/17 05:50:13;;;;;;;;;;;23.00;99.90;;;;;;5073764;28;19908;-83
2021/06/17 05:52:38;;;;;;;;;;;23.00;99.90;;;;;;5072966;28;19965;-81
2021/06/17 05:55:04;;;;;;;;;;;23.10;99.90;;;;;;5073456;28;19916;-79
2021/06/17 05:57:30;;;;;;;;;;;23.20;99.90;;;;;;5074538;28;20000;-80
2021/06/17 05:59:56;;;;;;;;;;;23.30;99.90;;;;;;5074018;28;19917;-76
2021/06/17 06:02:23;;;;;;;;;;;23.40;99.90;;;;;;5074032;28;19912;-82
2021/06/17 06:04:51;;;;;;;;;;;23.50;99.90;;;;;;5071735;28;19916;-80
2021/06/17 06:07:17;;;;;;;;;;;23.60;99.90;;;;;;5072605;28;19922;-81
2021/06/17 06:09:43;;;;;;;;;;;23.70;99.90;;;;;;5073665;28;19909;-82
2021/06/17 06:12:10;;;;;;;;;;;23.80;99.90;;;;;;5074432;28;20307;-81
2021/06/17 06:14:36;;;;;;;;;;;23.90;99.90;;;;;;5073405;28;19912;-85
2021/06/17 06:17:02;;;;;;;;;;;24.00;99.90;;;;;;5073386;28;20311;-85
2021/06/17 06:19:29;;;;;;;;;;;24.10;99.90;;;;;;5074010;28;19912;-82
2021/06/17 06:21:55;;;;;;;;;;;24.30;99.90;;;;;;5074863;28;19951;-86
2021/06/17 06:24:20;;;;;;;;;;;24.30;99.90;;;;;;5078513;28;20001;-89
2021/06/17 06:26:46;;;;;;;;;;;24.50;99.90;;;;;;5074405;28;19908;-84
2021/06/17 06:29:12;;;;;;;;;;;24.60;99.90;;;;;;5074334;28;19916;-83
2021/06/17 06:31:38;;;;;;;;;;;24.70;99.90;;;;;;5073337;28;19916;-89
2021/06/17 06:34:04;;;;;;;;;;;24.80;99.90;;;;;;5073454;28;19912;-82
2021/06/17 06:36:29;;;;;;;;;;;24.90;99.90;;;;;;5074925;28;19959;-92
2021/06/17 06:38:55;;;;;;;;;;;24.90;99.90;;;;;;5074164;28;19908;-87
2021/06/17 06:41:20;;;;;;;;;;;24.90;99.90;;;;;;5074855;28;19912;-88
2021/06/17 06:43:46;;;;;;;;;;;24.90;99.90;;;;;;5074500;28;19919;-87
2021/06/17 06:46:12;;;;;;;;;;;24.90;99.90;;;;;;5072837;28;19916;-85
2021/06/17 06:48:37;;;;;;;;;;;24.90;99.90;;;;;;5074104;28;19939;-78
2021/06/17 06:51:03;;;;;;;;;;;24.80;99.90;;;;;;5074398;28;19999;-83
2021/06/17 06:53:28;;;;;;;;;;;24.80;99.90;;;;;;5071223;28;19919;-84
2021/06/17 06:55:54;;;;;;;;;;;24.70;99.90;;;;;;5072603;28;19936;-80
2021/06/17 06:58:19;;;;;;;;;;;24.80;99.90;;;;;;5065841;28;19912;-86
2021/06/17 07:00:45;;;;;;;;;;;24.80;99.90;;;;;;5071262;28;19915;-84
2021/06/17 07:03:11;;;;;;;;;;;24.80;99.90;;;;;;5065928;28;19916;-83
2021/06/17 07:05:37;;;;;;;;;;;24.90;99.90;;;;;;5070191;28;19915;-87
2021/06/17 07:08:09;;;;;;;;;;;24.90;99.90;;;;;;5069225;28;19916;-83
2021/06/17 07:10:35;;;;;;;;;;;25.00;99.90;;;;;;5065546;28;19912;-79
2021/06/17 07:13:01;;;;;;;;;;;25.00;99.90;;;;;;5071270;28;19947;-86
2021/06/17 07:15:26;;;;;;;;;;;25.10;99.90;;;;;;5066361;28;19951;-85
2021/06/17 07:17:52;;;;;;;;;;;25.10;99.90;;;;;;5063093;28;20291;-84
2021/06/17 07:20:18;;;;;;;;;;;25.10;99.90;;;;;;5071984;28;19939;-84
2021/06/17 07:22:43;;;;;;;;;;;25.20;99.90;;;;;;5067280;28;19935;-85
2021/06/17 07:25:09;;;;;;;;;;;25.20;99.90;;;;;;5069856;28;19999;-84
2021/06/17 07:27:34;;;;;;;;;;;25.30;99.90;;;;;;5069193;28;19909;-77
2021/06/17 07:30:00;;;;;;;;;;;25.40;99.90;;;;;;5073835;28;20292;-84
2021/06/17 07:32:26;;;;;;;;;;;25.60;99.90;;;;;;5074911;28;19920;-84
2021/06/17 07:34:51;;;;;;;;;;;25.70;99.90;;;;;;5063142;28;19912;-89
2021/06/17 07:37:17;;;;;;;;;;;25.80;99.90;;;;;;5074873;28;20207;-84
2021/06/17 07:39:43;;;;;;;;;;;25.90;99.90;;;;;;5074064;28;19947;-87
2021/06/17 07:42:10;;;;;;;;;;;26.00;99.90;;;;;;5072145;28;19931;-87
2021/06/17 07:44:36;;;;;;;;;;;26.20;99.90;;;;;;5074267;28;20295;-93
2021/06/17 07:47:01;;;;;;;;;;;26.30;99.90;;;;;;5074374;28;20057;-84
2021/06/17 07:49:27;;;;;;;;;;;26.40;99.90;;;;;;5070761;28;19909;-86
2021/06/17 07:51:52;;;;;;;;;;;26.50;99.90;;;;;;5072133;28;19927;-80
2021/06/17 07:54:21;;;;;;;;;;;26.60;99.90;;;;;;5071832;28;20299;-80
2021/06/17 07:56:48;;;;;;;;;;;26.70;99.90;;;;;;5071106;28;19943;-81
2021/06/17 07:59:18;;;;;;;;;;;26.80;99.90;;;;;;5071798;28;19924;-80
2021/06/17 08:01:43;;;;;;;;;;;26.90;99.90;;;;;;5070400;28;19918;-81
2021/06/17 08:04:09;;;;;;;;;;;27.00;99.90;;;;;;5071701;28;19991;-83
2021/06/17 08:06:34;;;;;;;;;;;27.20;99.90;;;;;;5070937;28;19917;-80
2021/06/17 08:09:00;;;;;;;;;;;27.20;99.90;;;;;;5069918;28;19916;-84
2021/06/17 08:11:26;;;;;;;;;;;27.30;99.90;;;;;;5074374;28;19912;-80
2021/06/17 08:13:52;;;;;;;;;;;27.40;99.90;;;;;;5075692;28;20207;-80
2021/06/17 08:16:17;;;;;;;;;;;27.50;99.90;;;;;;5070362;28;20354;-85
2021/06/17 08:18:43;;;;;;;;;;;27.60;99.90;;;;;;5068413;28;19919;-80
2021/06/17 08:21:08;;;;;;;;;;;27.50;99.90;;;;;;5076571;28;19915;-82
2021/06/17 08:23:34;;;;;;;;;;;27.60;99.90;;;;;;5076783;28;19934;-81
2021/06/17 08:25:59;;;;;;;;;;;27.60;99.90;;;;;;5076811;28;19909;-81
2021/06/17 08:28:26;;;;;;;;;;;27.70;99.90;;;;;;5076126;28;19965;-80
2021/06/17 08:30:52;;;;;;;;;;;27.90;99.90;;;;;;5077046;28;20129;-81
2021/06/17 08:33:18;;;;;;;;;;;28.00;99.90;;;;;;5077273;28;20311;-80
2021/06/17 08:35:44;;;;;;;;;;;28.20;99.90;;;;;;5075762;28;19925;-79
2021/06/17 08:38:09;;;;;;;;;;;28.30;99.90;;;;;;5074513;28;19915;-80
2021/06/17 08:40:35;;;;;;;;;;;28.60;99.90;;;;;;5074450;28;20584;-79
2021/06/17 08:43:01;;;;;;;;;;;28.70;99.90;;;;;;5072213;28;20321;-79
2021/06/17 08:45:27;;;;;;;;;;;28.90;99.90;;;;;;5077109;28;20024;-80
2021/06/17 08:47:53;;;;;;;;;;;29.10;99.90;;;;;;5075030;28;19908;-79
2021/06/17 08:50:19;;;;;;;;;;;29.30;99.90;;;;;;5076183;28;20224;-81
2021/06/17 08:52:45;;;;;;;;;;;29.30;99.90;;;;;;5077723;28;19951;-79
2021/06/17 08:55:10;;;;;;;;;;;29.30;99.90;;;;;;5075308;28;19914;-79
2021/06/17 08:57:36;;;;;;;;;;;29.30;99.90;;;;;;5073293;28;19912;-79
2021/06/17 09:00:22;;;;;;;;;;;29.20;99.90;;;;;;5073268;28;19912;-80
2021/06/17 09:02:56;;;;;;;;;;;29.00;99.90;;;;;;5072929;28;19962;-79
2021/06/17 09:05:22;;;;;;;;;;;28.90;99.90;;;;;;5085282;28;20936;-81
2021/06/17 09:07:48;;;;;;;;;;;28.80;99.90;;;;;;5072554;28;19938;-80
2021/06/17 09:10:15;;;;;;;;;;;28.80;99.90;;;;;;5070528;28;19923;-81
2021/06/17 09:12:48;;;;;;;;;;;28.90;99.90;;;;;;5073615;28;20315;-82
2021/06/17 09:15:14;;;;;;;;;;;28.90;99.90;;;;;;5072693;28;19916;-82
2021/06/17 09:17:40;;;;;;;;;;;28.90;99.90;;;;;;5071932;28;19923;-80
2021/06/17 09:20:06;;;;;;;;;;;28.90;99.90;;;;;;5063647;28;20003;-81
2021/06/17 09:22:31;;;;;;;;;;;29.00;99.90;;;;;;5061842;28;19935;-82
2021/06/17 09:24:57;;;;;;;;;;;28.70;99.90;;;;;;5070295;28;20334;-81
2021/06/17 09:27:29;;;;;;;;;;;28.70;99.90;;;;;;5075388;28;19957;-83
2021/06/17 09:30:15;;;;;;;;;;;28.70;99.90;;;;;;5065560;28;19962;-79
2021/06/17 09:32:52;;;;;;;;;;;28.70;99.90;;;;;;5062609;28;19966;-83
2021/06/17 09:35:18;;;;;;;;;;;28.80;99.90;;;;;;5074359;28;19920;-82
2021/06/17 09:37:44;;;;;;;;;;;28.80;99.90;;;;;;5075144;28;19924;-81
2021/06/17 09:40:26;;;;;;;;;;;28.60;99.90;;;;;;5076647;28;19912;-82
2021/06/17 09:42:53;;;;;;;;;;;28.60;99.90;;;;;;5075758;28;19962;-82
2021/06/17 09:45:22;;;;;;;;;;;28.50;99.90;;;;;;5074958;28;19904;-83
2021/06/17 09:47:48;;;;;;;;;;;28.50;99.90;;;;;;5063338;28;19931;-82
2021/06/17 09:50:40;;;;;;;;;;;28.40;99.90;;;;;;5071989;28;19913;-82
2021/06/17 09:53:06;;;;;;;;;;;28.20;99.90;;;;;;5057983;28;19931;-82
2021/06/17 09:55:42;;;;;;;;;;;28.10;99.90;;;;;;5071789;28;19911;-82
2021/06/17 09:58:08;;;;;;;;;;;28.00;99.90;;;;;;5060002;28;19913;-82
2021/06/17 10:00:34;;;;;;;;;;;28.10;99.90;;;;;;5069393;28;20231;-80
2021/06/17 10:03:13;;;;;;;;;;;28.00;99.90;;;;;;5064709;28;19908;-82
2021/06/17 10:05:38;;;;;;;;;;;28.10;99.90;;;;;;5075347;28;19908;-81
2021/06/17 10:08:04;;;;;;;;;;;28.20;99.90;;;;;;5073487;28;19912;-82
2021/06/17 10:10:35;;;;;;;;;;;28.30;99.90;;;;;;5072809;28;20376;-82
2021/06/17 10:13:03;;;;;;;;;;;28.30;99.90;;;;;;5071194;28;19921;-82
2021/06/17 10:15:28;;;;;;;;;;;28.30;99.90;;;;;;5071352;28;20323;-80
2021/06/17 10:17:54;;;;;;;;;;;28.40;99.90;;;;;;5078644;28;19994;-81
2021/06/17 10:20:20;;;;;;;;;;;28.30;99.90;;;;;;5070752;28;19920;-81
2021/06/17 10:22:50;;;;;;;;;;;28.40;99.90;;;;;;5071155;28;19912;-81
2021/06/17 10:25:24;;;;;;;;;;;28.30;99.90;;;;;;5073052;28;20329;-80
2021/06/17 10:27:50;;;;;;;;;;;28.40;99.90;;;;;;5069464;28;20314;-81
2021/06/17 10:30:16;;;;;;;;;;;28.70;99.90;;;;;;5073872;28;20034;-80
2021/06/17 10:32:50;;;;;;;;;;;29.00;99.90;;;;;;5074644;28;19951;-80
2021/06/17 10:35:34;;;;;;;;;;;29.30;99.90;;;;;;5073368;28;19920;-81
2021/06/17 10:38:01;;;;;;;;;;;29.40;99.90;;;;;;5062352;28;19914;-80
2021/06/17 10:40:29;;;;;;;;;;;29.80;99.90;;;;;;5069421;28;19947;-80
2021/06/17 10:42:56;;;;;;;;;;;30.20;99.90;;;;;;5073690;28;19916;-79
2021/06/17 10:45:27;;;;;;;;;;;30.60;99.90;;;;;;5074405;28;19991;-80
2021/06/17 10:47:54;;;;;;;;;;;30.80;99.90;;;;;;5065947;28;19904;-81
2021/06/17 10:50:35;;;;;;;;;;;31.00;99.90;;;;;;5073326;28;19908;-80
2021/06/17 10:53:17;;;;;;;;;;;31.30;99.90;;;;;;5074267;28;19916;-82
2021/06/17 10:55:57;;;;;;;;;;;31.50;99.90;;;;;;5071372;28;19908;-80
2021/06/17 10:58:40;;;;;;;;;;;31.70;99.90;;;;;;5072364;28;19931;-79
2021/06/17 11:01:24;;;;;;;;;;;31.90;99.90;;;;;;5073123;28;19911;-78
2021/06/17 11:04:03;;;;;;;;;;;32.10;99.90;;;;;;5069825;28;19915;-80
2021/06/17 11:06:48;;;;;;;;;;;32.20;99.90;;;;;;5059696;28;19909;-80
2021/06/17 11:09:32;;;;;;;;;;;32.20;99.90;;;;;;5061332;28;19913;-80
2021/06/17 11:11:58;;;;;;;;;;;32.10;99.90;;;;;;5071999;28;19980;-78
2021/06/17 11:14:23;;;;;;;;;;;32.10;99.90;;;;;;5071018;28;19995;-79
2021/06/17 11:16:54;;;;;;;;;;;32.10;98.70;;;;;;5074349;28;19912;-79
2021/06/17 11:19:20;;;;;;;;;;;32.10;99.50;;;;;;5073324;28;19908;-79
2021/06/17 11:21:46;;;;;;;;;;;32.10;99.80;;;;;;5070133;28;20030;-80
2021/06/17 11:24:13;;;;;;;;;;;31.90;99.50;;;;;;5072190;28;19951;-79
2021/06/17 11:26:41;;;;;;;;;;;32.10;99.20;;;;;;5067203;28;19909;-80
2021/06/17 11:29:07;;;;;;;;;;;32.40;98.70;;;;;;5067866;28;19916;-80
2021/06/17 11:31:46;;;;;;;;;;;32.70;97.80;;;;;;5071224;28;19908;-79
2021/06/17 11:34:13;;;;;;;;;;;32.90;96.60;;;;;;5073624;28;19911;-80
2021/06/17 11:36:49;;;;;;;;;;;32.90;97.50;;;;;;5073516;28;19997;-79
2021/06/17 11:39:21;;;;;;;;;;;33.00;95.90;;;;;;5073444;28;19915;-82
2021/06/17 11:41:47;;;;;;;;;;;33.00;94.80;;;;;;5073806;28;19909;-83
2021/06/17 11:44:16;;;;;;;;;;;33.00;93.80;;;;;;5075362;28;19908;-84
2021/06/17 11:46:42;;;;;;;;;;;32.80;93.80;;;;;;5079145;28;20002;-84
2021/06/17 11:49:09;;;;;;;;;;;32.70;93.60;;;;;;5077119;28;20279;-87
2021/06/17 11:51:48;;;;;;;;;;;32.60;94.00;;;;;;5078624;28;20346;-81
2021/06/17 11:54:20;;;;;;;;;;;32.40;94.30;;;;;;5076141;28;20342;-83
2021/06/17 11:56:49;;;;;;;;;;;32.30;95.60;;;;;;5073488;28;19966;-85
2021/06/17 11:59:17;;;;;;;;;;;32.40;95.50;;;;;;5080185;28;19915;-93
2021/06/17 12:02:02;;;;;;;;;;;32.30;95.00;;;;;;5075962;28;20202;-84
2021/06/17 12:04:42;;;;;;;;;;;32.10;94.70;;;;;;5068552;28;19915;-89
2021/06/17 12:07:08;;;;;;;;;;;31.90;95.30;;;;;;5071488;28;19919;-91
2021/06/17 12:09:34;;;;;;;;;;;31.90;95.90;;;;;;5072730;28;19908;-83
2021/06/17 12:12:16;;;;;;;;;;;32.10;95.70;;;;;;5074065;28;19961;-89
2021/06/17 12:14:45;;;;;;;;;;;31.90;95.40;;;;;;5071000;28;19918;-85
2021/06/17 12:17:12;;;;;;;;;;;32.00;95.50;;;;;;5069617;28;19912;-94
2021/06/17 12:19:38;;;;;;;;;;;31.90;95.60;;;;;;5073804;28;19939;-86
2021/06/17 12:22:07;;;;;;;;;;;32.10;95.10;;;;;;5068949;28;20405;-84
2021/06/17 12:24:33;;;;;;;;;;;31.90;96.30;;;;;;5072484;28;19940;-80
2021/06/17 12:26:58;;;;;;;;;;;31.70;95.90;;;;;;5076023;28;19958;-88
2021/06/17 12:29:25;;;;;;;;;;;31.50;96.50;;;;;;5077095;28;20322;-87
2021/06/17 12:31:55;;;;;;;;;;;31.40;97.20;;;;;;5077215;28;20321;-93
2021/06/17 12:34:21;;;;;;;;;;;31.50;96.10;;;;;;5076661;28;19908;-80
2021/06/17 12:37:03;;;;;;;;;;;31.80;96.90;;;;;;5077203;28;19915;-89
2021/06/17 12:39:29;;;;;;;;;;;31.70;95.80;;;;;;5067884;28;20314;-90
2021/06/17 12:41:54;;;;;;;;;;;31.50;94.30;;;;;;5068943;28;19919;-81
2021/06/17 12:44:35;;;;;;;;;;;31.60;95.80;;;;;;5071829;28;19909;-85
2021/06/17 12:47:03;;;;;;;;;;;31.70;95.50;;;;;;5068284;28;19915;-90
2021/06/17 12:52:13;;;;;;;;;;;31.60;95.70;;;;;;5063777;28;20019;-91
2021/06/17 12:54:40;;;;;;;;;;;31.60;95.60;;;;;;5068943;28;20299;-84
2021/06/17 12:57:12;;;;;;;;;;;31.70;94.70;;;;;;5071600;28;19915;-82
2021/06/17 12:59:39;;;;;;;;;;;31.70;94.80;;;;;;5060056;28;20291;-90
2021/06/17 13:02:05;;;;;;;;;;;31.70;94.60;;;;;;5072977;28;19912;-85
2021/06/17 13:04:30;;;;;;;;;;;31.70;95.50;;;;;;5067224;28;19912;-89
2021/06/17 13:06:56;;;;;;;;;;;31.70;94.70;;;;;;5073240;28;20003;-88
2021/06/17 13:09:23;;;;;;;;;;;31.60;95.00;;;;;;5072476;28;19915;-79
2021/06/17 13:12:04;;;;;;;;;;;31.60;94.60;;;;;;5073969;28;20311;-82
2021/06/17 13:14:30;;;;;;;;;;;31.60;95.50;;;;;;5069492;28;19934;-80
2021/06/17 13:17:05;;;;;;;;;;;31.60;95.80;;;;;;5074393;28;19997;-85
2021/06/17 13:19:31;;;;;;;;;;;31.70;95.50;;;;;;5069848;28;19916;-88
2021/06/17 13:22:01;;;;;;;;;;;31.70;94.40;;;;;;5071516;28;19912;-83
2021/06/17 13:24:27;;;;;;;;;;;31.60;95.20;;;;;;5072716;28;19908;-83
2021/06/17 13:27:11;;;;;;;;;;;31.70;94.50;;;;;;5073195;28;20065;-88
2021/06/17 13:29:48;;;;;;;;;;;31.70;94.70;;;;;;5078355;28;20321;-83
2021/06/17 13:32:14;;;;;;;;;;;31.50;95.00;;;;;;5074283;28;19912;-92
2021/06/17 13:34:40;;;;;;;;;;;31.50;95.30;;;;;;5076508;28;19904;-90
2021/06/17 13:37:06;;;;;;;;;;;31.70;95.20;;;;;;5076876;28;19915;-80
2021/06/17 13:39:31;;;;;;;;;;;31.70;95.50;;;;;;5074443;28;20006;-83
2021/06/17 13:41:57;;;;;;;;;;;31.70;95.30;;;;;;5065607;28;19916;-81
2021/06/17 13:44:23;;;;;;;;;;;31.60;95.30;;;;;;5067718;28;19909;-81
2021/06/17 13:46:49;;;;;;;;;;;31.60;95.30;;;;;;5067674;28;19931;-83
2021/06/17 13:49:14;;;;;;;;;;;31.50;95.70;;;;;;5072914;28;20200;-86
2021/06/17 13:51:40;;;;;;;;;;;31.40;96.20;;;;;;5072945;28;19915;-82
2021/06/17 13:54:05;;;;;;;;;;;31.30;95.30;;;;;;5066107;28;20264;-80
2021/06/17 13:56:31;;;;;;;;;;;31.30;95.90;;;;;;5070066;28;19904;-88
2021/06/17 13:58:57;;;;;;;;;;;31.30;96.60;;;;;;5074728;28;19904;-85
2021/06/17 14:01:22;;;;;;;;;;;31.40;96.40;;;;;;5063812;28;19909;-85
2021/06/17 14:03:48;;;;;;;;;;;31.40;95.20;;;;;;5067163;28;19909;-81
2021/06/17 14:06:14;;;;;;;;;;;31.40;95.90;;;;;;5071093;28;19974;-81
2021/06/17 14:08:42;;;;;;;;;;;31.40;95.80;;;;;;5067004;28;20319;-79
2021/06/17 14:11:08;;;;;;;;;;;31.30;96.90;;;;;;5065294;28;20207;-79
2021/06/17 14:13:33;;;;;;;;;;;31.30;96.30;;;;;;5069624;28;19999;-82
2021/06/17 14:15:59;;;;;;;;;;;31.00;96.40;;;;;;5070991;28;19916;-84
2021/06/17 14:18:25;;;;;;;;;;;30.90;96.40;;;;;;5069030;28;19912;-81
2021/06/17 14:20:50;;;;;;;;;;;30.80;96.70;;;;;;5063530;28;19912;-81
2021/06/17 14:23:16;;;;;;;;;;;30.50;96.10;;;;;;5064887;28;19920;-82
2021/06/17 14:25:42;;;;;;;;;;;30.50;95.70;;;;;;5063227;28;19911;-81